Time;durP1;ratioP1;P1;durP2;ratioP2;P2;SDS_P1;SDS_P2;PMS_P1;PMS_P2;Temp;Humidity;BMP_temperature;BMP_pressure;BME280_temperature;BME280_humidity;BME280_pressure;Samples;Min_cycle;Max_cycle;Signal;HPM_P1;HPM_P2
2022/06/02 00:02:32;;;;;;;9.85;8.52;;;;;;;11.52;100.00;99533.06;4754602;29;20100;-84
2022/06/02 00:05:16;;;;;;;10.88;8.55;;;;;;;11.47;100.00;99535.47;4761189;29;20042;-87
2022/06/02 00:08:00;;;;;;;13.27;9.80;;;;;;;11.44;100.00;99533.22;4796303;29;20122;-85
2022/06/02 00:10:58;;;;;;;12.88;10.20;;;;;;;11.48;100.00;99538.88;4777852;29;20137;-86
2022/06/02 00:14:01;;;;;;;17.73;11.52;;;;;;;11.49;100.00;99530.81;4790731;29;20046;-86
2022/06/02 00:17:19;;;;;;;17.40;12.30;;;;;;;11.48;100.00;99523.94;4805141;29;20089;-87
2022/06/02 00:20:28;;;;;;;18.10;11.52;;;;;;;11.48;100.00;99526.56;4783560;30;20047;-85
2022/06/02 00:23:27;;;;;;;19.30;12.77;;;;;;;11.48;100.00;99531.00;4782225;29;20050;-86
2022/06/02 00:26:28;;;;;;;17.42;12.98;;;;;;;11.35;100.00;99535.16;4783863;29;20509;-85
2022/06/02 00:29:38;;;;;;;18.30;12.48;;;;;;;11.26;100.00;99526.56;4741612;30;20048;-86
2022/06/02 00:32:48;;;;;;;20.13;13.98;;;;;;;11.22;100.00;99530.56;4770000;30;20415;-85
2022/06/02 00:35:56;;;;;;;17.92;13.93;;;;;;;11.19;100.00;99525.66;4731078;30;20117;-84
2022/06/02 00:38:44;;;;;;;19.67;13.85;;;;;;;11.23;100.00;99532.19;4730209;30;20175;-86
2022/06/02 00:41:52;;;;;;;19.75;12.52;;;;;;;11.18;100.00;99528.50;4694873;30;20046;-87
2022/06/02 00:44:50;;;;;;;19.00;13.05;;;;;;;11.19;100.00;99536.19;4696116;30;20064;-86
2022/06/02 00:48:34;;;;;;;18.65;14.20;;;;;;;11.17;100.00;99524.25;4729651;30;20047;-85
2022/06/02 00:51:07;;;;;;;21.65;15.35;;;;;;;11.07;100.00;99527.97;4702787;30;20055;-88
2022/06/02 00:58:46;;;;;;;;;;;;;;;;;;;;;
2022/06/02 01:02:11;;;;;;;21.38;12.88;;;;;;;11.04;100.00;99543.31;4619870;31;20550;-85
2022/06/02 01:05:15;;;;;;;17.92;13.65;;;;;;;10.87;100.00;99527.75;4607738;31;20094;-85
2022/06/02 01:08:07;;;;;;;20.42;15.07;;;;;;;10.93;100.00;99534.09;4612674;31;20054;-86
2022/06/02 01:11:18;;;;;;;15.77;12.50;;;;;;;10.86;100.00;99547.16;4627543;30;20059;-86
2022/06/02 01:14:37;;;;;;;21.27;13.75;;;;;;;10.78;100.00;99534.94;4627735;31;20059;-84
2022/06/02 01:18:16;;;;;;;21.75;14.93;;;;;;;10.71;100.00;99534.84;4636544;30;20125;-88
2022/06/02 01:20:57;;;;;;;20.48;15.55;;;;;;;10.69;100.00;99531.59;4650423;30;20050;-86
2022/06/02 01:23:52;;;;;;;26.45;17.35;;;;;;;10.65;100.00;99538.22;4674252;30;20032;-85
2022/06/02 01:26:55;;;;;;;24.02;16.92;;;;;;;10.61;100.00;99544.81;4762667;30;20504;-86
2022/06/02 01:30:06;;;;;;;22.70;17.17;;;;;;;10.47;100.00;99532.50;4752646;30;20080;-87
2022/06/02 01:32:46;;;;;;;22.27;15.75;;;;;;;10.47;100.00;99556.13;4738832;30;20127;-86
2022/06/02 01:35:22;;;;;;;23.80;17.13;;;;;;;10.50;100.00;99553.16;4754561;30;20509;-84
2022/06/02 01:38:03;;;;;;;23.75;16.10;;;;;;;10.49;100.00;99551.53;4733306;30;20056;-88
2022/06/02 01:41:11;;;;;;;25.33;16.77;;;;;;;10.52;100.00;99548.53;4721041;30;20056;-85
2022/06/02 01:44:18;;;;;;;24.77;15.32;;;;;;;10.45;100.00;99555.50;4781443;30;20126;-86
2022/06/02 01:47:20;;;;;;;21.80;15.38;;;;;;;10.47;100.00;99545.63;4774182;30;20078;-86
2022/06/02 01:50:23;;;;;;;23.33;16.33;;;;;;;10.44;100.00;99552.06;4756887;30;20047;-86
2022/06/02 01:52:55;;;;;;;26.52;17.70;;;;;;;10.38;100.00;99550.94;4772622;30;20561;-87
2022/06/02 01:55:59;;;;;;;28.08;19.20;;;;;;;10.46;100.00;99554.50;4772325;30;20090;-87
2022/06/02 01:58:56;;;;;;;31.25;20.13;;;;;;;10.47;100.00;99558.75;4776457;30;20055;-87
2022/06/02 02:02:24;;;;;;;24.73;16.65;;;;;;;10.33;100.00;99558.53;4773887;30;20051;-90
2022/06/02 02:05:25;;;;;;;25.73;18.05;;;;;;;10.32;100.00;99550.84;4758123;30;20039;-87
2022/06/02 02:08:46;;;;;;;27.73;18.98;;;;;;;10.29;100.00;99547.56;4716615;30;20063;-87
2022/06/02 02:11:42;;;;;;;22.88;16.77;;;;;;;10.25;100.00;99546.31;4746761;30;20068;-87
2022/06/02 02:14:49;;;;;;;27.77;19.00;;;;;;;10.22;100.00;99551.09;4750802;30;20051;-88
2022/06/02 02:18:05;;;;;;;31.67;20.95;;;;;;;10.21;100.00;99528.47;4734589;30;20120;-88
2022/06/02 02:20:36;;;;;;;29.98;21.00;;;;;;;10.27;100.00;99539.06;4707934;30;20568;-86
2022/06/02 02:23:30;;;;;;;29.55;20.30;;;;;;;10.25;100.00;99535.03;4732723;30;20502;-88
2022/06/02 02:27:00;;;;;;;31.13;20.73;;;;;;;10.36;100.00;99536.38;4731999;30;20101;-87
2022/06/02 02:29:47;;;;;;;30.23;19.77;;;;;;;10.36;100.00;99534.56;4718188;30;20167;-88
2022/06/02 02:32:45;;;;;;;31.00;20.42;;;;;;;10.32;100.00;99525.41;4787030;30;20143;-87
2022/06/02 02:35:21;;;;;;;30.33;20.15;;;;;;;10.29;100.00;99523.97;4771650;30;20043;-87
2022/06/02 02:38:25;;;;;;;35.25;22.42;;;;;;;10.36;100.00;99531.94;4787385;30;20082;-88
2022/06/02 02:40:56;;;;;;;33.50;22.17;;;;;;;10.41;100.00;99520.94;4772899;30;20043;-86
2022/06/02 02:43:39;;;;;;;33.53;22.10;;;;;;;10.40;100.00;99514.84;4785963;30;20044;-86
2022/06/02 02:46:14;;;;;;;33.58;21.90;;;;;;;10.51;100.00;99518.03;4784152;30;20529;-84
2022/06/02 02:49:18;;;;;;;32.22;22.52;;;;;;;10.49;100.00;99520.03;4796818;29;20047;-85
2022/06/02 02:51:58;;;;;;;36.17;23.90;;;;;;;10.41;100.00;99508.59;4789858;29;20498;-85
2022/06/02 02:54:55;;;;;;;;;;;;;;;10.42;100.00;99510.25;4793537;29;20045;-85
2022/06/02 02:57:36;;;;;;;38.35;23.17;;;;;;;10.45;100.00;99508.25;4792884;29;19917;-87
2022/06/02 03:00:12;;;;;;;39.63;23.85;;;;;;;10.35;100.00;99508.50;4785121;29;20039;-86
2022/06/02 03:03:40;;;;;;;36.17;22.08;;;;;;;10.32;100.00;99509.69;4807108;29;20137;-87
2022/06/02 03:06:31;;;;;;;33.85;21.83;;;;;;;10.28;100.00;99503.16;4785318;29;20046;-87
2022/06/02 03:09:26;;;;;;;31.95;20.88;;;;;;;10.26;100.00;99507.78;4778476;29;20151;-88
2022/06/02 03:12:17;;;;;;;31.35;20.02;;;;;;;10.15;100.00;99509.84;4786487;29;20110;-87
2022/06/02 03:14:52;;;;;;;35.45;23.27;;;;;;;10.14;100.00;99504.78;4797191;29;20041;-88
2022/06/02 03:17:36;;;;;;;38.17;24.85;;;;;;;10.18;100.00;99507.84;4811153;29;20043;-86
2022/06/02 03:20:41;;;;;;;37.80;23.70;;;;;;;10.22;100.00;99503.88;4801639;29;20078;-86
2022/06/02 03:23:34;;;;;;;34.90;21.92;;;;;;;10.13;100.00;99506.59;4807169;29;20383;-86
2022/06/02 03:26:34;;;;;;;30.73;20.42;;;;;;;10.15;100.00;99504.59;4803947;29;20104;-88
2022/06/02 03:29:28;;;;;;;32.05;21.08;;;;;;;10.09;100.00;99510.56;4790852;29;20118;-88
2022/06/02 03:32:00;;;;;;;38.10;24.85;;;;;;;10.11;100.00;99508.59;4811748;29;20038;-88
2022/06/02 03:34:46;;;;;;;40.78;24.50;;;;;;;10.12;100.00;99512.84;4789915;29;20104;-87
2022/06/02 03:37:20;;;;;;;38.60;24.80;;;;;;;10.14;100.00;99507.41;4801029;29;20023;-85
2022/06/02 03:40:19;;;;;;;39.77;25.30;;;;;;;10.20;100.00;99506.69;4781366;29;20100;-86
2022/06/02 03:43:08;;;;;;;39.03;22.73;;;;;;;10.15;100.00;99509.84;4799909;29;20289;-86
2022/06/02 03:45:53;;;;;;;43.13;26.13;;;;;;;10.15;100.00;99509.84;4798279;29;20402;-84
2022/06/02 03:48:58;;;;;;;40.83;25.90;;;;;;;10.26;100.00;99505.16;4796787;29;20043;-89
2022/06/02 03:51:53;;;;;;;39.90;26.08;;;;;;;10.33;100.00;99498.19;4782347;29;20109;-89
2022/06/02 03:54:39;;;;;;;41.00;26.70;;;;;;;10.35;100.00;99505.88;4776136;30;20043;-87
2022/06/02 03:57:32;;;;;;;35.75;23.77;;;;;;;10.33;100.00;99500.81;4797146;29;20057;-86
2022/06/02 04:00:16;;;;;;;40.90;25.60;;;;;;;10.37;100.00;99496.81;4789938;29;20052;-85
2022/06/02 04:03:06;;;;;;;36.53;25.70;;;;;;;10.47;100.00;99490.53;4813653;29;20051;-86
2022/06/02 04:06:26;;;;;;;38.38;26.17;;;;;;;10.59;100.00;99498.75;4798394;29;20063;-85
2022/06/02 04:09:36;;;;;;;39.10;24.33;;;;;;;10.64;100.00;99499.81;4815420;29;20042;-85
2022/06/02 04:15:22;;;;;;;33.40;22.98;;;;;;;10.75;100.00;99497.72;4814517;29;20125;-86
2022/06/02 04:17:59;;;;;;;33.10;21.52;;;;;;;10.67;100.00;99496.84;4815402;29;20111;-85
2022/06/02 04:21:03;;;;;;;29.88;19.85;;;;;;;10.64;100.00;99499.81;4813036;29;20090;-88
2022/06/02 04:24:29;;;;;;;34.97;23.35;;;;;;;10.65;100.00;99495.38;4759123;30;20044;-85
2022/06/02 04:27:13;;;;;;;37.33;24.10;;;;;;;10.73;100.00;99495.28;4755791;30;20060;-88
2022/06/02 04:30:06;;;;;;;39.70;23.08;;;;;;;10.84;100.00;99501.88;4741022;30;20039;-86
2022/06/02 04:32:43;;;;;;;30.75;20.90;;;;;;;10.86;100.00;99498.03;4754799;30;20052;-87
2022/06/02 04:35:27;;;;;;;29.65;19.90;;;;;;;10.90;100.00;99501.13;4760289;30;20040;-88
2022/06/02 04:38:25;;;;;;;30.65;19.77;;;;;;;10.90;100.00;99503.75;4756085;30;20068;-88
2022/06/02 04:41:42;;;;;;;28.85;19.63;;;;;;;10.92;100.00;99499.13;4757664;30;20641;-89
2022/06/02 04:44:36;;;;;;;27.73;19.10;;;;;;;10.96;100.00;99500.38;4754814;30;20046;-89
2022/06/02 04:47:05;;;;;;;26.38;18.52;;;;;;;11.03;100.00;99497.03;4764159;30;20465;-87
2022/06/02 04:50:02;;;;;;;30.10;19.50;;;;;;;11.08;100.00;99489.41;4756877;30;20149;-87
2022/06/02 04:53:05;;;;;;;37.20;23.70;;;;;;;11.10;100.00;99487.38;4765504;30;20432;-88
2022/06/02 04:56:09;;;;;;;36.85;24.85;;;;;;;11.17;100.00;99490.88;4797835;29;20054;-86
2022/06/02 04:58:48;;;;;;;41.55;25.95;;;;;;;11.23;100.00;99492.78;4782801;29;20409;-87
2022/06/02 05:01:24;;;;;;;36.90;23.50;;;;;;;11.37;100.00;99493.72;4824704;29;20057;-85
2022/06/02 05:04:20;;;;;;;32.95;21.98;;;;;;;11.33;100.00;99504.78;4806795;29;20208;-88
2022/06/02 05:07:28;;;;;;;27.98;18.77;;;;;;;11.29;100.00;99505.16;4797771;29;20042;-86
2022/06/02 05:10:22;;;;;;;30.45;19.63;;;;;;;11.35;100.00;99513.28;4803890;29;20066;-85
2022/06/02 05:13:30;;;;;;;27.45;18.90;;;;;;;11.35;100.00;99508.03;4803318;29;20117;-87
2022/06/02 05:16:20;;;;;;;29.08;19.83;;;;;;;11.39;100.00;99510.13;4809720;29;20118;-86
2022/06/02 05:18:59;;;;;;;30.30;20.20;;;;;;;11.47;100.00;99509.16;4816140;29;20046;-89
2022/06/02 05:22:02;;;;;;;29.17;18.75;;;;;;;11.58;100.00;99516.53;4798312;29;20030;-87
2022/06/02 05:24:33;;;;;;;28.80;20.10;;;;;;;11.67;100.00;99513.78;4817427;29;20026;-87
2022/06/02 05:27:30;;;;;;;29.52;19.83;;;;;;;11.81;100.00;99517.34;4799869;29;20129;-87
2022/06/02 05:31:06;;;;;;;31.13;21.27;;;;;;;11.94;100.00;99516.63;4814206;29;20046;-85
2022/06/02 05:34:19;;;;;;;32.15;23.10;;;;;;;12.06;100.00;99509.84;4772121;29;20426;-87
2022/06/02 05:37:04;;;;;;;;;;;;;;;12.20;100.00;99510.75;4805524;29;20135;-88
2022/06/02 05:40:08;;;;;;;32.17;20.60;;;;;;;12.27;100.00;99511.59;4789093;29;19929;-86
2022/06/02 05:42:43;;;;;;;28.60;20.27;;;;;;;12.37;100.00;99516.50;4798845;29;20035;-88
2022/06/02 05:45:31;;;;;;;30.70;21.17;;;;;;;12.45;100.00;99517.38;4812770;29;20053;-89
2022/06/02 05:48:04;;;;;;;36.25;22.63;;;;;;;12.56;100.00;99509.72;4785993;29;20050;-90
2022/06/02 05:50:45;;;;;;;36.15;24.58;;;;;;;12.65;100.00;99514.81;4813979;29;20456;-88
2022/06/02 05:53:28;;;;;;;33.42;23.70;;;;;;;12.68;100.00;99515.25;4785704;29;20060;-87
2022/06/02 05:56:30;;;;;;;37.47;25.58;;;;;;;12.84;100.00;99518.53;4799213;29;20045;-87
2022/06/02 05:59:28;;;;;;;39.63;25.67;;;;;;;12.95;100.00;99525.06;4783169;29;20039;-88
2022/06/02 06:01:56;;;;;;;37.58;24.83;;;;;;;13.02;100.00;99527.72;4813492;29;20058;-87
2022/06/02 06:04:52;;;;;;;34.35;23.15;;;;;;;13.08;100.00;99521.66;4799823;29;20106;-86
2022/06/02 06:07:46;;;;;;;30.00;21.30;;;;;;;13.17;100.00;99525.75;4787588;29;20056;-89
2022/06/02 06:10:38;;;;;;;32.20;21.52;;;;;;;13.29;100.00;99528.59;4814275;29;20417;-87
2022/06/02 06:13:33;;;;;;;30.25;21.15;;;;;;;13.40;100.00;99527.19;4807696;29;20038;-86
2022/06/02 06:16:15;;;;;;;28.48;19.85;;;;;;;13.52;100.00;99530.09;4807864;29;20481;-87
2022/06/02 06:19:20;;;;;;;30.05;19.63;;;;;;;13.63;100.00;99528.66;4808024;29;20068;-86
2022/06/02 06:22:16;;;;;;;29.67;20.10;;;;;;;13.66;100.00;99536.16;4805720;29;20050;-84
2022/06/02 06:25:02;;;;;;;28.10;19.60;;;;;;;13.75;100.00;99529.66;4807308;29;20046;-87
2022/06/02 06:27:49;;;;;;;26.13;20.50;;;;;;;13.78;100.00;99528.47;4793061;29;20458;-85
2022/06/02 06:30:44;;;;;;;30.38;21.33;;;;;;;13.75;100.00;99515.69;4807802;29;20041;-88
2022/06/02 06:33:37;;;;;;;29.02;20.02;;;;;;;13.95;100.00;99532.31;4825818;29;20091;-88
2022/06/02 06:36:10;;;;;;;27.90;19.63;;;;;;;14.06;100.00;99533.50;4824873;29;20409;-89
2022/06/02 06:38:47;;;;;;;25.92;17.42;;;;;;;14.15;100.00;99528.84;4809991;29;20046;-89
2022/06/02 06:41:54;;;;;;;28.08;17.85;;;;;;;14.10;100.00;99536.56;4814870;29;20035;-90
2022/06/02 06:44:47;;;;;;;29.45;18.25;;;;;;;14.29;100.00;99540.16;4808464;29;20038;-90
2022/06/02 06:47:17;;;;;;;24.33;16.52;;;;;;;14.40;100.00;99528.97;4780671;29;20043;-92
2022/06/02 06:56:53;;;;;;;19.38;14.13;;;;;;;14.76;100.00;99536.63;4712120;30;20112;-83
2022/06/02 06:59:54;;;;;;;20.05;14.40;;;;;;;14.75;100.00;99535.00;4769200;30;20043;-87
2022/06/02 07:03:02;;;;;;;21.42;14.05;;;;;;;14.94;100.00;99542.03;4761885;30;20161;-87
2022/06/02 07:05:55;;;;;;;18.25;13.85;;;;;;;15.02;100.00;99546.25;4755384;30;20430;-88
2022/06/02 07:08:48;;;;;;;18.20;12.90;;;;;;;15.18;100.00;99544.97;4789186;30;20120;-84
2022/06/02 07:14:25;;;;;;;15.88;12.50;;;;;;;15.28;100.00;99555.06;4774686;30;20175;-86
2022/06/02 07:17:13;;;;;;;17.27;12.30;;;;;;;15.32;100.00;99552.78;4777496;30;20035;-87
2022/06/02 07:19:54;;;;;;;16.05;11.30;;;;;;;15.42;100.00;99537.28;4744551;30;20047;-88
2022/06/02 07:22:37;;;;;;;12.85;10.20;;;;;;;15.51;100.00;99551.84;4774658;30;20137;-84
2022/06/02 07:25:02;;;;;;;14.55;10.32;;;;;;;15.68;100.00;99549.50;4786898;29;20050;-84
2022/06/02 07:27:39;;;;;;;15.45;10.65;;;;;;;15.68;100.00;99553.97;4798444;29;20427;-84
2022/06/02 07:30:23;;;;;;;12.50;10.68;;;;;;;15.80;100.00;99556.72;4816076;29;20054;-85
2022/06/02 07:33:27;;;;;;;11.90;10.27;;;;;;;15.83;100.00;99562.41;4816033;29;20375;-87
2022/06/02 07:36:06;;;;;;;12.70;10.35;;;;;;;15.83;100.00;99554.47;4792018;29;20043;-87
2022/06/02 07:39:05;;;;;;;12.65;10.65;;;;;;;15.92;100.00;99562.19;4811225;29;20087;-84
2022/06/02 07:41:53;;;;;;;14.88;10.43;;;;;;;15.94;100.00;99562.78;4811869;29;20117;-85
2022/06/02 07:44:40;;;;;;;12.27;9.98;;;;;;;16.03;100.00;99556.16;4809213;29;20061;-85
2022/06/02 07:47:42;;;;;;;14.52;10.07;;;;;;;16.14;100.00;99557.28;4784705;29;20039;-84
2022/06/02 07:50:14;;;;;;;11.73;9.60;;;;;;;16.19;100.00;99559.28;4796716;29;20046;-84
2022/06/02 07:52:51;;;;;;;12.15;9.98;;;;;;;16.21;100.00;99567.81;4811372;29;20429;-86
2022/06/02 07:55:20;;;;;;;12.65;10.23;;;;;;;16.27;100.00;99565.13;4794521;29;20046;-83
2022/06/02 07:57:46;;;;;;;12.73;10.43;;;;;;;16.29;100.00;99564.88;4812890;29;20121;-85
2022/06/02 08:00:57;;;;;;;11.48;9.40;;;;;;;16.15;100.00;99544.88;4813160;29;20057;-85
2022/06/02 08:03:45;;;;;;;11.00;8.98;;;;;;;16.36;100.00;99562.16;4791279;29;20046;-85
2022/06/02 08:06:42;;;;;;;11.15;8.57;;;;;;;16.50;100.00;99566.31;4794165;29;20389;-85
2022/06/02 08:09:19;;;;;;;10.13;8.52;;;;;;;16.57;100.00;99560.94;4816861;29;20086;-86
2022/06/02 08:12:03;;;;;;;12.48;9.07;;;;;;;16.61;100.00;99567.41;4811044;29;20478;-85
2022/06/02 08:15:07;;;;;;;9.30;8.30;;;;;;;16.75;100.00;99561.97;4798140;29;20031;-87
2022/06/02 08:17:51;;;;;;;11.63;9.27;;;;;;;16.79;100.00;99558.63;4793755;29;20039;-83
2022/06/02 08:20:37;;;;;;;13.05;9.13;;;;;;;16.87;100.00;99565.47;4809759;29;20045;-83
2022/06/02 08:23:12;;;;;;;11.18;9.98;;;;;;;16.92;100.00;99565.63;4779796;29;20040;-84
2022/06/02 08:26:06;;;;;;;13.50;10.38;;;;;;;16.95;100.00;99561.69;4794606;29;20046;-85
2022/06/02 08:29:01;;;;;;;14.48;10.25;;;;;;;16.97;100.00;99564.94;4821346;29;20236;-89
2022/06/02 08:31:34;;;;;;;13.10;10.45;;;;;;;16.90;100.00;99565.03;4818348;29;20521;-86
2022/06/02 08:34:03;;;;;;;12.55;10.30;;;;;;;16.98;100.00;99571.84;4782141;29;20062;-85
2022/06/02 08:36:46;;;;;;;13.27;10.77;;;;;;;17.19;100.00;99554.69;4793564;29;20442;-83
2022/06/02 08:39:44;;;;;;;;;;;;;;;17.49;100.00;99556.53;4795834;29;20030;-86
2022/06/02 08:42:39;;;;;;;15.68;11.73;;;;;;;17.87;100.00;99558.97;4739812;29;19917;-84
2022/06/02 08:45:23;;;;;;;15.02;12.32;;;;;;;18.29;100.00;99553.59;4792639;29;20042;-84
2022/06/02 08:48:04;;;;;;;14.85;10.75;;;;;;;18.69;100.00;99557.31;4810228;29;20038;-86
2022/06/02 08:50:45;;;;;;;19.55;10.75;;;;;;;18.95;100.00;99550.66;4791462;29;20567;-85
2022/06/02 08:53:52;;;;;;;9.90;8.90;;;;;;;19.31;100.00;99552.38;4791201;29;20034;-86
2022/06/02 08:56:53;;;;;;;11.43;9.57;;;;;;;19.72;100.00;99558.38;4812619;29;20270;-87
2022/06/02 08:59:38;;;;;;;10.73;9.48;;;;;;;20.15;98.81;99544.63;4815455;29;20493;-86
2022/06/02 09:02:37;;;;;;;11.88;10.23;;;;;;;20.59;95.71;99544.66;4816601;29;20026;-85
2022/06/02 09:05:15;;;;;;;12.50;10.00;;;;;;;20.80;93.53;99550.25;4803368;29;20035;-87
2022/06/02 09:08:04;;;;;;;11.40;10.25;;;;;;;20.53;92.79;99545.66;4796534;29;20035;-88
2022/06/02 09:11:00;;;;;;;13.25;11.68;;;;;;;20.66;90.36;99555.16;4796552;29;20102;-86
2022/06/02 09:13:53;;;;;;;13.82;10.13;;;;;;;20.37;89.79;99553.47;4811237;29;20039;-86
2022/06/02 09:16:32;;;;;;;11.95;8.98;;;;;;;20.39;90.63;99550.56;4810826;29;20478;-86
2022/06/02 09:19:22;;;;;;;11.80;9.63;;;;;;;20.33;87.71;99557.69;4795521;29;20035;-86
2022/06/02 09:22:04;;;;;;;10.18;9.20;;;;;;;20.15;85.29;99549.97;4801227;29;20125;-87
2022/06/02 09:24:49;;;;;;;11.95;9.82;;;;;;;20.59;87.11;99547.31;4816687;29;20045;-88
2022/06/02 09:27:34;;;;;;;11.25;8.88;;;;;;;21.17;86.04;99546.13;4810863;29;20055;-90
2022/06/02 09:30:38;;;;;;;9.80;8.88;;;;;;;21.53;86.20;99538.44;4811177;29;20031;-90
2022/06/02 09:33:43;;;;;;;8.70;7.80;;;;;;;21.98;82.38;99544.34;4785478;29;20043;-89
2022/06/02 09:36:36;;;;;;;8.90;8.10;;;;;;;22.02;80.49;99545.47;4796380;29;20042;-89
2022/06/02 09:39:27;;;;;;;9.77;8.75;;;;;;;21.82;82.47;99544.28;4798373;29;20039;-88
2022/06/02 09:42:03;;;;;;;14.25;8.75;;;;;;;21.95;81.47;99547.56;4778397;29;20486;-80
2022/06/02 09:44:41;;;;;;;12.65;9.00;;;;;;;21.10;81.38;99555.13;4809686;29;20027;-82
2022/06/02 09:47:27;;;;;;;10.20;9.20;;;;;;;20.34;81.39;99559.28;4804648;29;20034;-81
2022/06/02 09:50:02;;;;;;;10.82;9.82;;;;;;;19.94;82.96;99555.00;4811680;29;20125;-80
2022/06/02 09:53:05;;;;;;;10.48;9.48;;;;;;;19.63;83.61;99557.97;4792857;29;20050;-80
2022/06/02 09:55:53;;;;;;;9.73;8.90;;;;;;;19.40;83.40;99562.41;4791491;29;20051;-80
2022/06/02 09:58:48;;;;;;;9.35;8.45;;;;;;;19.69;83.90;99558.88;4797731;29;20085;-80
2022/06/02 10:01:37;;;;;;;11.10;9.30;;;;;;;19.75;85.79;99552.56;4799562;29;20046;-80
2022/06/02 10:04:27;;;;;;;8.82;8.02;;;;;;;19.53;83.65;99553.28;4794664;29;20054;-81
2022/06/02 10:07:27;;;;;;;6.70;6.13;;;;;;;19.35;80.30;99548.97;4791616;29;20050;-80
2022/06/02 10:10:09;;;;;;;7.45;6.85;;;;;;;19.17;82.16;99544.69;4791957;29;20138;-80
2022/06/02 10:13:20;;;;;;;8.52;7.45;;;;;;;19.12;82.94;99544.59;4815030;29;20494;-82
2022/06/02 10:16:05;;;;;;;7.65;6.55;;;;;;;18.94;84.92;99535.75;4813902;29;20039;-79
2022/06/02 10:19:08;;;;;;;8.05;7.30;;;;;;;19.02;84.63;99539.06;4799581;29;20031;-80
2022/06/02 10:21:52;;;;;;;9.25;8.35;;;;;;;19.22;84.44;99536.00;4788586;29;20129;-79
2022/06/02 10:25:28;;;;;;;9.90;7.72;;;;;;;19.53;84.72;99534.66;4798077;29;20073;-81
2022/06/02 10:28:15;;;;;;;9.18;8.27;;;;;;;19.58;82.31;99541.09;4774418;29;20043;-81
2022/06/02 10:31:32;;;;;;;9.70;8.25;;;;;;;19.48;82.57;99537.25;4816360;29;20026;-80
2022/06/02 10:34:21;;;;;;;8.98;7.85;;;;;;;19.59;84.35;99538.22;4815503;29;20494;-82
2022/06/02 10:37:22;;;;;;;11.52;7.82;;;;;;;19.54;83.83;99536.25;4812807;29;20046;-81
2022/06/02 10:40:15;;;;;;;9.52;7.88;;;;;;;19.80;83.28;99528.66;4782630;29;20078;-79
2022/06/02 10:43:19;;;;;;;8.93;8.13;;;;;;;20.10;83.78;99532.84;4812036;29;20521;-79
2022/06/02 10:46:10;;;;;;;10.10;8.25;;;;;;;20.60;84.50;99530.28;4810899;29;20442;-80
2022/06/02 10:49:07;;;;;;;9.35;8.40;;;;;;;20.87;82.63;99518.88;4797805;29;20045;-80
2022/06/02 10:52:21;;;;;;;9.70;8.70;;;;;;;21.09;79.83;99526.03;4812541;29;20062;-80
2022/06/02 10:55:18;;;;;;;11.60;8.95;;;;;;;21.25;80.30;99518.94;4803225;29;20034;-80
2022/06/02 10:58:01;;;;;;;10.50;8.13;;;;;;;21.32;79.89;99524.09;4816608;29;20035;-80
2022/06/02 11:00:53;;;;;;;10.90;9.77;;;;;;;21.21;78.70;99523.97;4795512;29;20038;-79
2022/06/02 11:04:01;;;;;;;10.15;9.15;;;;;;;21.19;79.07;99528.78;4796388;29;20615;-80
2022/06/02 11:06:52;;;;;;;9.73;8.35;;;;;;;21.38;77.86;99520.41;4798793;29;20046;-80
2022/06/02 11:10:00;;;;;;;10.98;9.88;;;;;;;21.48;76.45;99512.47;4813922;29;20054;-80
2022/06/02 11:13:03;;;;;;;9.13;8.23;;;;;;;21.63;76.08;99513.66;4821332;29;20050;-80
2022/06/02 11:16:07;;;;;;;7.68;6.95;;;;;;;22.05;75.43;99520.09;4784672;30;20043;-80
2022/06/02 11:18:58;;;;;;;10.18;9.20;;;;;;;21.88;73.82;99510.38;4782182;30;20108;-80
2022/06/02 11:22:27;;;;;;;9.57;8.65;;;;;;;21.58;73.74;99508.25;4783799;30;20051;-80
2022/06/02 11:25:53;;;;;;;9.02;8.10;;;;;;;21.48;75.49;99511.66;4784625;30;20096;-80
2022/06/02 11:29:24;;;;;;;9.02;8.13;;;;;;;21.04;76.36;99518.78;4784667;30;20453;-79
2022/06/02 11:32:38;;;;;;;8.85;7.90;;;;;;;20.92;74.97;99510.91;4713984;30;20124;-80
2022/06/02 11:36:06;;;;;;;8.88;8.07;;;;;;;21.17;75.56;99509.53;4712956;30;20094;-79
2022/06/02 11:39:05;;;;;;;8.63;7.78;;;;;;;21.43;74.15;99507.09;4714593;30;20080;-80
2022/06/02 11:42:05;;;;;;;8.02;7.32;;;;;;;21.57;73.81;99495.97;4716508;30;20052;-80
2022/06/02 11:45:02;;;;;;;10.65;7.63;;;;;;;21.68;73.10;99500.38;4712210;30;20135;-80
2022/06/02 11:47:31;;;;;;;7.82;7.00;;;;;;;21.78;72.98;99499.63;4711061;30;20055;-81
2022/06/02 11:51:01;;;;;;;7.32;6.70;;;;;;;22.07;73.80;99502.72;4790836;29;20129;-81
2022/06/02 11:54:03;;;;;;;8.68;7.80;;;;;;;22.12;70.63;99499.28;4817690;29;20183;-80
2022/06/02 11:57:26;;;;;;;10.23;7.50;;;;;;;22.27;70.54;99498.53;4821280;29;20054;-80
2022/06/02 12:00:52;;;;;;;8.77;7.93;;;;;;;22.36;71.99;99494.28;4821979;29;20402;-81
2022/06/02 12:04:14;;;;;;;7.70;7.10;;;;;;;22.43;69.92;99482.56;4784074;29;20462;-80
2022/06/02 12:07:16;;;;;;;6.78;6.20;;;;;;;22.66;69.70;99487.47;4822192;29;20095;-80
2022/06/02 12:10:15;;;;;;;7.33;6.67;;;;;;;22.82;69.01;99484.84;4818647;29;20491;-81
2022/06/02 12:13:20;;;;;;;6.60;6.10;;;;;;;23.03;68.71;99495.56;4813010;29;20059;-80
2022/06/02 12:15:55;;;;;;;7.65;6.95;;;;;;;23.16;68.57;99486.19;4814219;29;20512;-81
2022/06/02 12:19:00;;;;;;;7.68;7.07;;;;;;;23.00;66.94;99485.41;4811523;29;20051;-81
2022/06/02 12:22:21;;;;;;;6.30;5.80;;;;;;;23.28;64.83;99477.94;4815051;29;20075;-81
2022/06/02 12:25:32;;;;;;;12.57;6.65;;;;;;;23.58;63.52;99470.91;4808012;29;20078;-80
2022/06/02 12:28:26;;;;;;;5.90;5.43;;;;;;;23.68;65.12;99468.25;4808735;29;20513;-80
2022/06/02 12:31:49;;;;;;;7.60;6.00;;;;;;;23.86;65.03;99474.88;4813176;29;20860;-81
2022/06/02 12:34:50;;;;;;;5.80;5.28;;;;;;;23.74;63.73;99467.16;4769156;29;20043;-80
2022/06/02 12:38:01;;;;;;;6.85;6.00;;;;;;;23.62;64.17;99469.31;4800505;29;20042;-81
2022/06/02 12:41:10;;;;;;;6.95;6.28;;;;;;;23.80;61.99;99455.34;4796510;29;20435;-81
2022/06/02 12:44:10;;;;;;;7.18;6.47;;;;;;;23.83;61.33;99459.34;4780419;29;20073;-80
2022/06/02 12:47:16;;;;;;;6.97;6.38;;;;;;;24.17;60.64;99460.59;4749431;29;20415;-80
2022/06/02 12:49:59;;;;;;;7.13;6.53;;;;;;;24.62;60.78;99452.59;4777050;29;20055;-81
2022/06/02 12:52:58;;;;;;;5.85;5.32;;;;;;;24.61;60.45;99451.81;4779855;29;20152;-81
2022/06/02 12:56:01;;;;;;;6.28;4.88;;;;;;;24.59;60.04;99456.66;4795626;29;20477;-81
2022/06/02 12:58:45;;;;;;;5.60;5.07;;;;;;;24.84;57.78;99449.53;4761374;29;20104;-80
2022/06/02 13:01:42;;;;;;;4.55;4.20;;;;;;;24.65;56.62;99436.75;4792357;29;20050;-80
2022/06/02 13:04:29;;;;;;;5.18;4.88;;;;;;;24.57;58.39;99442.72;4794537;29;20134;-80
2022/06/02 13:07:47;;;;;;;5.88;5.30;;;;;;;24.70;58.19;99443.16;4783189;29;20070;-81
2022/06/02 13:11:00;;;;;;;5.63;5.22;;;;;;;24.29;58.71;99444.22;4786711;29;20084;-81
2022/06/02 13:14:17;;;;;;;5.97;5.50;;;;;;;24.45;55.40;99436.88;4821820;29;20121;-80
2022/06/02 13:17:19;;;;;;;5.00;4.60;;;;;;;24.76;55.63;99440.19;4811083;29;20049;-81
2022/06/02 13:20:36;;;;;;;5.05;4.68;;;;;;;24.67;55.48;99439.94;4821873;29;20042;-81
2022/06/02 13:23:52;;;;;;;4.90;4.60;;;;;;;24.63;57.01;99436.22;4765288;30;20178;-78
2022/06/02 13:26:33;;;;;;;4.68;4.10;;;;;;;24.88;56.98;99434.47;4751913;30;20044;-79
2022/06/02 13:29:44;;;;;;;5.65;5.10;;;;;;;24.79;55.79;99436.16;4766837;30;20054;-79
2022/06/02 13:32:46;;;;;;;5.30;4.90;;;;;;;24.90;56.49;99432.28;4765973;30;20407;-78
2022/06/02 13:35:35;;;;;;;5.53;5.13;;;;;;;24.68;56.05;99430.81;4769365;30;20051;-79
2022/06/02 13:38:38;;;;;;;6.20;5.47;;;;;;;24.86;57.19;99431.25;4769295;30;20093;-79
2022/06/02 13:41:28;;;;;;;6.10;5.13;;;;;;;25.01;57.41;99432.22;4768691;30;20069;-79
2022/06/02 13:44:36;;;;;;;4.60;4.13;;;;;;;25.23;55.52;99423.69;4753875;30;20054;-78
2022/06/02 13:47:47;;;;;;;4.57;4.28;;;;;;;24.74;54.78;99417.34;4767178;30;20048;-79